Time;durP1;ratioP1;P1;durP2;ratioP2;P2;SDS_P1;SDS_P2;PMS_P1;PMS_P2;Temp;Humidity;BMP_temperature;BMP_pressure;BME280_temperature;BME280_humidity;BME280_pressure;Samples;Min_cycle;Max_cycle;Signal;HPM_P1;HPM_P2
2022/01/12 00:00:39;;;;;;;169.70;71.60;;;;;;;-4.92;79.02;102353.88;52617;1274;1019785;-58
2022/01/12 00:03:15;;;;;;;145.70;57.10;;;;;;;-4.95;79.01;102346.98;52664;1274;1016622;-58
2022/01/12 00:05:47;;;;;;;189.60;77.40;;;;;;;-4.98;79.17;102348.42;52583;1274;1016660;-59
2022/01/12 00:08:18;;;;;;;199.80;84.80;;;;;;;-5.00;79.22;102348.90;52656;1274;1016135;-59
2022/01/12 00:10:50;;;;;;;168.40;67.50;;;;;;;-4.95;79.46;102351.34;52679;1274;1016576;-59
2022/01/12 00:13:21;;;;;;;161.00;64.90;;;;;;;-4.92;79.48;102349.55;52646;1274;1016638;-58
2022/01/12 00:15:54;;;;;;;152.20;62.70;;;;;;;-4.86;79.39;102350.26;52668;1274;1017966;-58
2022/01/12 00:18:25;;;;;;;156.70;61.40;;;;;;;-4.80;79.34;102349.09;52601;1274;1016740;-58
2022/01/12 00:21:00;;;;;;;145.60;56.20;;;;;;;-4.74;79.45;102344.69;52542;1274;1016732;-57
2022/01/12 00:23:33;;;;;;;180.20;71.40;;;;;;;-4.73;79.33;102344.37;52745;1274;1016818;-57
2022/01/12 00:26:07;;;;;;;161.40;64.80;;;;;;;-4.71;79.31;102339.99;52707;1273;1017066;-59
2022/01/12 00:34:19;;;;;;;221.90;92.10;;;;;;;-4.71;79.17;102346.05;52676;1273;1016642;-58
2022/01/12 00:36:50;;;;;;;212.00;86.30;;;;;;;-4.71;79.38;102351.54;52657;1273;1015970;-58
2022/01/12 00:39:21;;;;;;;152.80;59.30;;;;;;;-4.67;79.44;102349.50;52502;1273;1015855;-58
2022/01/12 00:41:53;;;;;;;243.20;101.40;;;;;;;-4.68;79.36;102346.88;52593;1273;1016262;-59
2022/01/12 00:44:32;;;;;;;215.20;88.50;;;;;;;-4.68;79.38;102344.41;52591;1273;1016682;-59
2022/01/12 00:47:03;;;;;;;157.20;62.10;;;;;;;-4.64;79.56;102340.16;52562;1273;1018128;-59
2022/01/12 00:49:34;;;;;;;187.30;74.70;;;;;;;-4.64;79.38;102336.92;52685;1273;1016314;-59
2022/01/12 00:52:07;;;;;;;170.20;68.30;;;;;;;-4.65;79.54;102336.35;52498;1273;1016697;-59
2022/01/12 00:54:39;;;;;;;207.50;80.20;;;;;;;-4.66;79.36;102332.61;52611;1273;1015878;-59
2022/01/12 00:57:10;;;;;;;171.70;66.60;;;;;;;-4.68;79.28;102336.71;52543;1273;1016324;-59
2022/01/12 00:59:42;;;;;;;160.50;64.60;;;;;;;-4.71;79.35;102345.22;52576;1273;1016045;-58
2022/01/12 01:02:14;;;;;;;155.80;62.90;;;;;;;-4.72;79.55;102350.64;52669;1273;1017294;-59
2022/01/12 01:04:45;;;;;;;161.60;60.40;;;;;;;-4.70;79.69;102351.09;52705;1273;1015996;-59
2022/01/12 01:07:17;;;;;;;152.50;62.50;;;;;;;-4.70;79.68;102357.27;52692;1273;1016269;-58
2022/01/12 01:09:57;;;;;;;165.50;63.60;;;;;;;-4.70;79.67;102354.33;52561;1273;1016539;-59
2022/01/12 01:12:30;;;;;;;151.10;59.00;;;;;;;-4.66;79.76;102353.61;52488;1273;1016492;-59
2022/01/12 01:15:05;;;;;;;166.20;63.80;;;;;;;-4.67;79.68;102347.35;52599;1273;1016528;-58
2022/01/12 01:26:04;;;;;;;153.60;58.10;;;;;;;-4.68;79.82;102352.66;52493;1273;1018802;-58
2022/01/12 01:28:35;;;;;;;146.10;57.10;;;;;;;-4.69;79.70;102348.35;52603;1273;1016621;-57
2022/01/12 01:31:06;;;;;;;141.00;58.40;;;;;;;-4.71;79.78;102345.06;52578;1273;1016363;-59
2022/01/12 01:33:37;;;;;;;168.60;65.90;;;;;;;-4.71;79.95;102337.68;52594;1273;1015735;-57
2022/01/12 01:36:08;;;;;;;153.60;61.70;;;;;;;-4.68;80.05;102333.57;52464;1273;1016804;-60
2022/01/12 01:38:40;;;;;;;151.90;59.30;;;;;;;-4.66;79.97;102338.60;52627;1273;1016215;-59
2022/01/12 01:41:12;;;;;;;157.80;60.40;;;;;;;-4.62;79.99;102333.67;52631;1273;1016082;-58
2022/01/12 01:44:06;;;;;;;166.80;63.80;;;;;;;-4.64;79.92;102333.30;52614;1273;1016613;-59
2022/01/12 01:55:13;;;;;;;167.80;62.00;;;;;;;-4.60;80.18;102343.59;52459;1273;1016542;-59
2022/01/12 01:57:45;;;;;;;173.30;71.90;;;;;;;-4.61;80.11;102345.96;52626;1273;1016488;-59
2022/01/12 02:00:20;;;;;;;177.50;67.10;;;;;;;-4.61;80.06;102343.71;52607;1273;1016620;-58
2022/01/12 02:02:55;;;;;;;167.60;64.60;;;;;;;-4.57;80.21;102342.23;52551;1273;1016760;-59
2022/01/12 02:05:26;;;;;;;160.70;64.20;;;;;;;-4.59;80.03;102334.92;52599;1273;1016401;-56
2022/01/12 02:08:05;;;;;;;155.50;65.40;;;;;;;-4.57;80.14;102334.14;52647;1273;1016405;-59
2022/01/12 02:10:38;;;;;;;153.30;60.30;;;;;;;-4.59;80.03;102335.91;52610;1273;1016191;-58
2022/01/12 02:13:17;;;;;;;150.10;65.70;;;;;;;-4.60;80.08;102334.70;52519;1273;1016399;-58
2022/01/12 02:15:51;;;;;;;148.30;59.10;;;;;;;-4.59;80.10;102339.34;52537;1273;1016397;-58
2022/01/12 02:18:36;;;;;;;154.50;58.70;;;;;;;-4.59;80.11;102338.02;52609;1274;1016033;-57
2022/01/12 02:35:35;;;;;;;164.30;64.70;;;;;;;-4.67;80.08;102344.85;52517;1279;1016307;-58
2022/01/12 02:40:55;;;;;;;183.70;76.40;;;;;;;-4.58;80.11;102346.08;52399;1279;1016679;-58
2022/01/12 02:43:41;;;;;;;176.80;70.40;;;;;;;-4.64;79.90;102340.07;52442;1279;1016467;-58
2022/01/12 02:54:41;;;;;;;151.30;59.90;;;;;;;-4.74;79.94;102337.63;52605;1279;1016582;-59
2022/01/12 02:57:12;;;;;;;176.00;69.70;;;;;;;-4.77;79.97;102332.58;52388;1278;1017235;-59
2022/01/12 03:00:01;;;;;;;156.70;64.50;;;;;;;-4.78;80.02;102329.11;52523;1279;1016491;-58
2022/01/12 03:02:36;;;;;;;149.80;59.30;;;;;;;-4.79;80.05;102331.27;52319;1279;1018459;-58
2022/01/12 03:08:02;;;;;;;147.60;59.40;;;;;;;-4.81;80.00;102338.64;52426;1279;1016488;-58
2022/01/12 03:10:34;;;;;;;151.60;59.50;;;;;;;-4.86;80.05;102336.48;52531;1278;1016211;-59
2022/01/12 03:13:06;;;;;;;165.10;61.30;;;;;;;-4.90;80.02;102333.18;52474;1273;1016609;-58
2022/01/12 03:15:41;;;;;;;149.20;59.30;;;;;;;-4.96;80.05;102333.64;52547;1273;1016273;-57
2022/01/12 03:18:12;;;;;;;163.70;62.90;;;;;;;-5.03;80.18;102331.77;52570;1273;1016372;-58
2022/01/12 03:20:45;;;;;;;165.90;62.40;;;;;;;-5.00;80.48;102331.35;52510;1273;1016433;-57
2022/01/12 03:23:17;;;;;;;150.20;63.90;;;;;;;-4.97;80.35;102333.15;52580;1273;1016659;-57
2022/01/12 03:25:49;;;;;;;153.80;62.60;;;;;;;-4.95;80.42;102328.55;52486;1273;1016281;-58
2022/01/12 03:28:21;;;;;;;168.10;62.10;;;;;;;-4.89;80.44;102327.16;52511;1273;1016269;-58
2022/01/12 03:30:55;;;;;;;166.00;63.40;;;;;;;-4.87;80.45;102325.74;52600;1273;1016393;-58
2022/01/12 03:33:51;;;;;;;162.00;58.80;;;;;;;-4.89;80.21;102324.81;52602;1273;1016626;-57
2022/01/12 04:12:34;;;;;;;149.80;59.80;;;;;;;-5.08;80.29;102323.86;52489;1273;1016548;-59
2022/01/12 04:15:06;;;;;;;170.70;72.20;;;;;;;-5.09;80.40;102329.90;52555;1273;1016533;-58
2022/01/12 04:17:38;;;;;;;171.00;71.40;;;;;;;-5.08;80.32;102332.74;52539;1273;1015955;-58
2022/01/12 04:20:10;;;;;;;157.90;61.40;;;;;;;-5.11;80.36;102329.34;52568;1273;1016339;-58
2022/01/12 04:25:31;;;;;;;142.20;57.00;;;;;;;-5.26;80.15;102324.38;52568;1273;1016540;-58
2022/01/12 04:28:02;;;;;;;149.60;59.60;;;;;;;-5.36;80.23;102329.05;52503;1273;1016262;-57
2022/01/12 04:30:33;;;;;;;143.40;55.90;;;;;;;-5.44;80.21;102318.14;52499;1273;1018468;-57
2022/01/12 04:33:04;;;;;;;149.70;55.80;;;;;;;-5.48;80.44;102323.68;52539;1273;1016626;-57
2022/01/12 04:35:44;;;;;;;134.50;52.30;;;;;;;-5.52;80.37;102322.27;52641;1273;1016439;-57
2022/01/12 04:38:16;;;;;;;148.90;56.80;;;;;;;-5.60;80.23;102319.80;52510;1273;1016423;-58
2022/01/12 04:40:48;;;;;;;151.00;56.20;;;;;;;-5.64;80.39;102314.16;52566;1273;1017686;-58
2022/01/12 04:43:22;;;;;;;147.80;56.70;;;;;;;-5.67;80.62;102321.88;52532;1273;1016535;-57
2022/01/12 04:46:22;;;;;;;149.70;56.40;;;;;;;-5.68;80.60;102316.79;52515;1273;1016310;-58
2022/01/12 04:49:07;;;;;;;156.40;58.00;;;;;;;-5.71;80.62;102314.64;52683;1273;1016706;-60
2022/01/12 04:51:39;;;;;;;150.70;57.10;;;;;;;-5.77;80.63;102314.66;52693;1273;1016695;-59
2022/01/12 04:54:10;;;;;;;157.00;59.70;;;;;;;-5.75;80.77;102318.02;52714;1273;1016415;-61
2022/01/12 04:56:41;;;;;;;140.60;56.70;;;;;;;-5.72;80.79;102321.10;52687;1273;1016719;-56
2022/01/12 04:59:13;;;;;;;152.90;56.90;;;;;;;-5.72;80.79;102319.50;52646;1273;1016580;-60
2022/01/12 05:01:52;;;;;;;140.50;54.60;;;;;;;-5.71;80.80;102321.30;54276;1273;1015364;-57
2022/01/12 05:12:53;;;;;;;159.10;59.60;;;;;;;-5.61;80.95;102326.63;52452;1279;1016423;-59
2022/01/12 05:15:32;;;;;;;173.70;65.50;;;;;;;-5.57;80.81;102324.77;52500;1277;1016679;-59
2022/01/12 05:18:04;;;;;;;148.70;59.30;;;;;;;-5.55;80.80;102325.95;52368;1278;1016714;-60
2022/01/12 05:20:37;;;;;;;147.40;61.50;;;;;;;-5.53;80.71;102330.53;52506;1277;1017133;-60
2022/01/12 05:23:08;;;;;;;140.70;60.90;;;;;;;-5.54;80.58;102331.35;52407;1277;1016614;-59
2022/01/12 05:25:39;;;;;;;148.00;58.00;;;;;;;-5.52;80.70;102326.39;52592;1278;1016665;-60
2022/01/12 05:28:10;;;;;;;134.30;57.30;;;;;;;-5.50;80.60;102328.99;52489;1278;1016290;-59
2022/01/12 05:30:41;;;;;;;162.00;65.30;;;;;;;-5.47;80.63;102332.54;52507;1278;1016349;-58
2022/01/12 05:33:13;;;;;;;149.70;62.50;;;;;;;-5.47;80.54;102334.95;52445;1278;1016402;-58
2022/01/12 05:35:45;;;;;;;155.70;57.50;;;;;;;-5.47;80.64;102340.65;52789;1279;1016375;-62
2022/01/12 05:38:17;;;;;;;151.00;56.90;;;;;;;-5.48;80.46;102340.21;52548;1277;1016700;-59
2022/01/12 05:40:52;;;;;;;152.60;57.90;;;;;;;-5.50;80.55;102345.09;52556;1278;1015989;-60
2022/01/12 05:43:28;;;;;;;139.80;55.30;;;;;;;-5.50;80.55;102349.10;52597;1278;1018867;-62
2022/01/12 05:46:10;;;;;;;137.40;56.10;;;;;;;-5.48;80.51;102352.34;52563;1279;1019258;-61
2022/01/12 05:51:32;;;;;;;139.40;55.30;;;;;;;-5.58;80.28;102351.88;52516;1273;1016220;-60
2022/01/12 05:54:03;;;;;;;149.70;59.40;;;;;;;-5.59;80.30;102356.55;52591;1273;1016264;-60
2022/01/12 05:56:34;;;;;;;162.00;63.90;;;;;;;-5.60;80.52;102364.52;52573;1273;1016861;-60
2022/01/12 05:59:05;;;;;;;149.90;56.20;;;;;;;-5.61;80.45;102363.14;52713;1273;1019211;-61
2022/01/12 06:01:37;;;;;;;136.80;54.30;;;;;;;-5.70;80.18;102363.48;52500;1273;1017125;-59
2022/01/12 06:04:08;;;;;;;142.70;55.10;;;;;;;-5.78;80.40;102369.91;52610;1273;1019088;-65
2022/01/12 06:06:40;;;;;;;146.50;56.20;;;;;;;-5.86;80.38;102371.45;52615;1273;1016623;-61
2022/01/12 06:09:12;;;;;;;150.90;55.90;;;;;;;-5.93;80.51;102385.39;52623;1273;1016272;-61
2022/01/12 06:11:43;;;;;;;150.30;56.50;;;;;;;-6.00;80.55;102391.04;52446;1273;1019093;-59
2022/01/12 06:14:18;;;;;;;140.60;57.00;;;;;;;-6.05;80.58;102397.39;52700;1273;1016626;-60
2022/01/12 06:16:50;;;;;;;141.20;53.80;;;;;;;-6.11;80.73;102400.88;52572;1273;1016341;-61
2022/01/12 06:19:21;;;;;;;144.40;55.20;;;;;;;-6.16;80.77;102404.77;52526;1273;1019880;-61
2022/01/12 06:21:52;;;;;;;129.00;53.20;;;;;;;-6.14;81.05;102402.98;52656;1273;1016181;-65
2022/01/12 06:24:23;;;;;;;125.90;52.40;;;;;;;-6.13;81.05;102400.49;52608;1273;1019075;-60
2022/01/12 06:26:54;;;;;;;140.60;54.40;;;;;;;-6.13;80.99;102400.12;52614;1273;1015965;-60
2022/01/12 06:29:38;;;;;;;144.50;55.30;;;;;;;-6.12;81.07;102403.13;52483;1273;1016414;-59
2022/01/12 06:32:11;;;;;;;147.30;56.10;;;;;;;-6.05;81.24;102409.90;52507;1273;1016584;-59
2022/01/12 06:34:43;;;;;;;168.10;63.30;;;;;;;-5.99;81.16;102406.69;52648;1273;1016037;-60
2022/01/12 06:37:14;;;;;;;164.40;69.50;;;;;;;-5.95;81.19;102400.05;52686;1273;1017282;-60
2022/01/12 06:39:45;;;;;;;139.00;57.80;;;;;;;-5.89;81.12;102391.70;52564;1273;1018385;-60
2022/01/12 06:42:17;;;;;;;157.30;59.70;;;;;;;-5.87;80.94;102385.73;52743;1273;1016311;-61
2022/01/12 06:44:50;;;;;;;156.70;61.20;;;;;;;-5.90;80.73;102385.08;52662;1273;1016335;-61
2022/01/12 06:47:22;;;;;;;190.80;75.70;;;;;;;-5.90;80.70;102388.08;52626;1273;1017380;-59
2022/01/12 06:49:52;;;;;;;204.20;82.30;;;;;;;-5.90;80.71;102389.11;52704;1273;1016281;-62
2022/01/12 06:52:24;;;;;;;155.50;64.40;;;;;;;-5.86;80.86;102388.36;52617;1273;1018141;-60
2022/01/12 06:54:55;;;;;;;177.90;66.60;;;;;;;-5.85;80.76;102389.73;52673;1273;1016150;-59
2022/01/12 06:57:27;;;;;;;160.90;65.50;;;;;;;-5.86;80.77;102391.66;52686;1273;1016161;-60
2022/01/12 06:59:58;;;;;;;195.40;75.90;;;;;;;-5.84;80.84;102392.58;52744;1273;1019156;-60
2022/01/12 07:02:29;;;;;;;187.30;71.10;;;;;;;-5.86;80.88;102397.05;52590;1273;1016343;-61
2022/01/12 07:05:01;;;;;;;190.00;75.50;;;;;;;-5.86;81.05;102404.77;52632;1273;1016971;-60
2022/01/12 07:07:32;;;;;;;150.80;64.30;;;;;;;-5.83;81.08;102405.14;52529;1273;1019534;-59
2022/01/12 07:10:04;;;;;;;152.00;59.00;;;;;;;-5.84;81.11;102416.20;52654;1273;1016985;-59
2022/01/12 07:12:36;;;;;;;158.70;61.50;;;;;;;-5.81;81.20;102422.30;52685;1273;1016631;-61
2022/01/12 07:15:12;;;;;;;160.90;60.20;;;;;;;-5.80;81.28;102430.98;52708;1273;1016372;-62
2022/01/12 07:17:44;;;;;;;154.50;58.90;;;;;;;-5.79;81.26;102432.59;52643;1273;1016189;-60
2022/01/12 07:20:16;;;;;;;168.60;66.40;;;;;;;-5.78;81.35;102424.70;52606;1273;1016521;-61
2022/01/12 07:22:47;;;;;;;206.40;92.10;;;;;;;-5.76;81.33;102416.00;52630;1273;1016072;-59
2022/01/12 07:25:19;;;;;;;158.70;62.40;;;;;;;-5.72;81.48;102422.18;52779;1273;1017055;-62
2022/01/12 07:27:50;;;;;;;178.80;69.00;;;;;;;-5.69;81.52;102419.50;52669;1273;1016498;-60
2022/01/12 07:30:24;;;;;;;172.00;63.40;;;;;;;-5.66;81.53;102406.61;52659;1273;1016625;-59
2022/01/12 07:32:55;;;;;;;164.70;68.60;;;;;;;-5.62;81.62;102410.70;52729;1273;1016616;-59
2022/01/12 07:35:27;;;;;;;158.10;63.00;;;;;;;-5.56;81.80;102414.14;52773;1273;1016475;-59
2022/01/12 07:37:58;;;;;;;162.80;64.40;;;;;;;-5.52;81.49;102416.36;52669;1273;1017008;-58
2022/01/12 07:40:29;;;;;;;158.00;63.50;;;;;;;-5.51;81.35;102422.16;52747;1273;1016205;-59
2022/01/12 07:43:01;;;;;;;189.50;78.80;;;;;;;-5.50;81.29;102421.83;52571;1273;1016615;-59
2022/01/12 07:45:36;;;;;;;183.30;78.00;;;;;;;-5.50;81.19;102428.67;52648;1273;1015930;-58
2022/01/12 07:48:08;;;;;;;223.80;87.80;;;;;;;-5.56;81.07;102430.33;52653;1273;1016780;-59
2022/01/12 07:50:39;;;;;;;180.80;77.20;;;;;;;-5.61;81.14;102426.73;52736;1273;1016311;-60
2022/01/12 07:53:11;;;;;;;209.70;85.10;;;;;;;-5.60;81.38;102424.39;52566;1273;1016265;-60
2022/01/12 07:55:42;;;;;;;223.70;93.10;;;;;;;-5.57;81.30;102428.17;52696;1273;1018200;-60
2022/01/12 07:58:13;;;;;;;273.10;120.40;;;;;;;-5.54;81.32;102427.59;52670;1273;1016168;-59
2022/01/12 08:00:44;;;;;;;204.00;83.40;;;;;;;-5.49;81.37;102428.54;52776;1273;1016202;-59
2022/01/12 08:03:20;;;;;;;232.50;95.00;;;;;;;-5.45;81.28;102425.41;52756;1273;1016228;-59
2022/01/12 08:05:52;;;;;;;298.60;121.40;;;;;;;-5.40;81.42;102423.90;52775;1273;1015829;-60
2022/01/12 08:08:22;;;;;;;179.50;78.70;;;;;;;-5.33;81.48;102416.77;52806;1273;1016155;-60
2022/01/12 08:10:54;;;;;;;194.00;73.00;;;;;;;-5.30;81.41;102427.98;52752;1273;1016257;-60
2022/01/12 08:13:25;;;;;;;201.50;85.00;;;;;;;-5.25;81.39;102431.48;52821;1273;1016555;-60
2022/01/12 08:15:56;;;;;;;338.00;149.40;;;;;;;-5.22;81.27;102430.35;52888;1273;1016646;-60
2022/01/12 08:18:28;;;;;;;207.90;83.90;;;;;;;-5.22;81.21;102428.02;53321;1273;1016480;-59
2022/01/12 08:20:59;;;;;;;180.90;70.30;;;;;;;-5.18;81.33;102424.12;52910;1273;1016061;-60
2022/01/12 08:23:30;;;;;;;185.20;75.80;;;;;;;-5.10;81.43;102423.29;52789;1273;1016539;-61
2022/01/12 08:26:02;;;;;;;168.10;70.30;;;;;;;-5.08;81.55;102415.30;52881;1273;1016479;-60
2022/01/12 08:28:33;;;;;;;168.30;68.50;;;;;;;-5.05;81.67;102409.83;52702;1273;1016360;-59
2022/01/12 08:31:04;;;;;;;179.80;70.70;;;;;;;-5.02;81.67;102411.98;52549;1273;1016141;-59
2022/01/12 08:33:35;;;;;;;171.90;69.00;;;;;;;-4.96;81.73;102414.34;52616;1273;1015968;-59
2022/01/12 08:36:07;;;;;;;188.30;76.50;;;;;;;-4.95;81.63;102420.85;52576;1273;1020383;-61
2022/01/12 08:38:38;;;;;;;188.80;76.30;;;;;;;-4.91;81.52;102426.31;52623;1273;1016435;-61
2022/01/12 08:41:09;;;;;;;170.30;71.60;;;;;;;-4.87;81.56;102421.50;52624;1273;1016347;-61
2022/01/12 08:43:40;;;;;;;199.10;81.30;;;;;;;-4.85;81.36;102420.99;52548;1273;1019790;-60
2022/01/12 08:46:11;;;;;;;169.40;70.40;;;;;;;-4.81;81.31;102418.10;52629;1272;1019994;-60
2022/01/12 08:48:42;;;;;;;161.60;70.50;;;;;;;-4.81;81.27;102413.68;52556;1273;1016512;-59
2022/01/12 08:51:13;;;;;;;167.90;68.80;;;;;;;-4.77;81.37;102408.88;52623;1273;1016332;-61
2022/01/12 08:53:46;;;;;;;182.50;70.90;;;;;;;-4.76;81.34;102410.09;52677;1273;1020179;-59
2022/01/12 08:56:19;;;;;;;181.40;70.30;;;;;;;-4.76;81.42;102407.75;52731;1273;1016544;-59
2022/01/12 08:58:51;;;;;;;177.10;71.80;;;;;;;-4.70;81.56;102404.50;52682;1273;1016174;-60
2022/01/12 09:01:22;;;;;;;192.00;75.20;;;;;;;-4.62;81.76;102408.19;52667;1273;1016198;-59
2022/01/12 09:03:53;;;;;;;188.10;77.30;;;;;;;-4.61;81.59;102413.26;52664;1273;1016920;-59
2022/01/12 09:06:25;;;;;;;189.60;80.40;;;;;;;-4.58;81.63;102405.49;52532;1273;1018155;-59
2022/01/12 09:08:58;;;;;;;175.80;73.30;;;;;;;-4.56;81.73;102396.07;52704;1273;1016603;-60
2022/01/12 09:11:30;;;;;;;182.70;75.40;;;;;;;-4.52;81.86;102397.65;52566;1272;1016264;-60
2022/01/12 09:14:01;;;;;;;186.10;78.10;;;;;;;-4.48;81.86;102391.05;52588;1273;1015963;-59
2022/01/12 09:16:34;;;;;;;172.30;70.40;;;;;;;-4.42;81.95;102388.84;52629;1273;1016431;-59
2022/01/12 09:19:10;;;;;;;181.90;77.30;;;;;;;-4.37;81.99;102383.02;52556;1273;1016706;-59
2022/01/12 09:21:41;;;;;;;176.00;73.50;;;;;;;-4.34;82.04;102378.42;52569;1273;1016711;-60
2022/01/12 09:24:12;;;;;;;182.10;76.60;;;;;;;-4.28;82.13;102386.44;52695;1273;1016212;-61
2022/01/12 09:26:43;;;;;;;175.20;71.70;;;;;;;-4.23;82.02;102389.63;52593;1273;1015998;-60
2022/01/12 09:29:15;;;;;;;175.10;71.50;;;;;;;-4.17;82.14;102383.16;52648;1273;1016614;-59
2022/01/12 09:31:47;;;;;;;162.90;67.40;;;;;;;-4.10;82.22;102374.16;52713;1273;1019217;-61
2022/01/12 09:34:18;;;;;;;151.40;62.80;;;;;;;-4.03;82.35;102377.26;52613;1273;1016757;-61
2022/01/12 09:36:49;;;;;;;157.60;63.80;;;;;;;-3.95;82.32;102376.89;52504;1273;1019080;-59
2022/01/12 09:39:20;;;;;;;152.70;65.10;;;;;;;-3.87;82.49;102376.58;52631;1273;1016768;-61
2022/01/12 09:41:51;;;;;;;150.40;62.50;;;;;;;-3.80;82.52;102372.72;52558;1273;1018068;-60
2022/01/12 09:44:28;;;;;;;155.30;63.50;;;;;;;-3.74;82.62;102368.67;52643;1273;1016277;-60
2022/01/12 09:47:03;;;;;;;149.70;62.80;;;;;;;-3.66;82.52;102384.80;52531;1273;1016458;-60
2022/01/12 09:49:35;;;;;;;148.00;62.50;;;;;;;-3.60;82.41;102395.26;52630;1273;1015970;-60
2022/01/12 09:52:07;;;;;;;152.40;65.70;;;;;;;-3.56;82.34;102393.70;52566;1273;1016274;-59
2022/01/12 09:54:38;;;;;;;150.30;64.30;;;;;;;-3.50;82.51;102396.77;52677;1273;1016267;-60
2022/01/12 09:57:10;;;;;;;163.90;63.50;;;;;;;-3.47;82.31;102394.37;52594;1273;1016058;-60
2022/01/12 09:59:41;;;;;;;151.80;65.20;;;;;;;-3.43;82.46;102389.61;52642;1273;1016455;-59
2022/01/12 10:02:21;;;;;;;161.80;67.80;;;;;;;-3.35;82.56;102393.03;52661;1273;1016477;-61
2022/01/12 10:05:02;;;;;;;162.20;66.20;;;;;;;-3.29;82.47;102391.00;52686;1273;1016686;-60
2022/01/12 10:07:33;;;;;;;146.80;63.80;;;;;;;-3.27;82.59;102384.85;52584;1273;1016561;-59
2022/01/12 10:10:09;;;;;;;158.00;67.20;;;;;;;-3.21;82.73;102381.52;52522;1273;1018659;-59
2022/01/12 10:12:40;;;;;;;164.30;66.80;;;;;;;-3.17;82.62;102377.20;52655;1273;1016060;-59
2022/01/12 10:15:13;;;;;;;158.70;69.70;;;;;;;-3.12;82.58;102377.42;52478;1273;1209840;-59
2022/01/12 10:17:45;;;;;;;162.40;67.60;;;;;;;-3.09;82.44;102373.25;52743;1273;1016399;-59
2022/01/12 10:20:19;;;;;;;149.30;66.80;;;;;;;-3.02;82.62;102368.33;52526;1273;1016455;-62
2022/01/12 10:23:06;;;;;;;157.50;65.60;;;;;;;-2.99;82.56;102364.08;52757;1273;1016433;-59
2022/01/12 10:25:40;;;;;;;144.10;63.20;;;;;;;-2.94;82.63;102363.30;52645;1273;1018852;-60
2022/01/12 10:28:17;;;;;;;164.50;66.20;;;;;;;-2.91;82.66;102365.30;52623;1273;1016429;-61
2022/01/12 10:30:57;;;;;;;147.70;64.60;;;;;;;-2.87;82.83;102365.45;52523;1273;1016377;-60
2022/01/12 10:33:29;;;;;;;161.20;70.20;;;;;;;-2.82;82.92;102362.83;52648;1273;1016697;-60
2022/01/12 10:36:03;;;;;;;163.20;70.80;;;;;;;-2.77;82.98;102361.96;52500;1273;1018822;-60
2022/01/12 10:38:34;;;;;;;152.60;66.80;;;;;;;-2.76;83.08;102369.61;52521;1273;1016519;-60
2022/01/12 10:41:06;;;;;;;160.40;67.50;;;;;;;-2.72;83.06;102367.61;52499;1273;1016913;-60
2022/01/12 10:43:38;;;;;;;148.50;64.50;;;;;;;-2.68;83.10;102362.69;52537;1273;1016642;-60
2022/01/12 10:46:11;;;;;;;144.40;60.70;;;;;;;-2.64;83.00;102362.44;52673;1273;1016404;-60
2022/01/12 10:48:45;;;;;;;146.70;63.90;;;;;;;-2.60;83.16;102356.31;52578;1273;1018121;-60
2022/01/12 10:51:20;;;;;;;152.70;64.30;;;;;;;-2.55;83.35;102349.02;52602;1273;1016730;-60
2022/01/12 10:53:53;;;;;;;146.00;67.10;;;;;;;-2.48;83.42;102348.61;52529;1273;1016617;-60
2022/01/12 10:56:25;;;;;;;145.20;66.70;;;;;;;-2.44;83.18;102340.91;52635;1273;1015968;-60
2022/01/12 10:58:58;;;;;;;137.50;60.00;;;;;;;-2.40;83.22;102340.66;52595;1273;1016494;-60
2022/01/12 11:01:31;;;;;;;124.30;54.80;;;;;;;-2.36;83.25;102331.72;52495;1273;1015825;-60
2022/01/12 11:04:02;;;;;;;131.00;55.00;;;;;;;-2.32;83.26;102327.16;52770;1273;1016182;-60
2022/01/12 11:06:35;;;;;;;124.50;56.50;;;;;;;-2.26;83.48;102331.03;52535;1273;1016127;-60
2022/01/12 11:09:07;;;;;;;109.30;44.80;;;;;;;-2.19;83.45;102327.05;52633;1273;1016634;-60
2022/01/12 11:11:39;;;;;;;106.90;47.10;;;;;;;-2.11;83.55;102318.86;52563;1273;1018027;-59
2022/01/12 11:14:11;;;;;;;99.10;43.80;;;;;;;-2.01;83.74;102314.41;52524;1273;1016563;-59
2022/01/12 11:16:44;;;;;;;86.60;39.20;;;;;;;-1.92;83.78;102305.54;52615;1273;1016436;-60
2022/01/12 11:19:16;;;;;;;87.30;38.70;;;;;;;-1.83;83.64;102300.42;52572;1273;1018832;-60
2022/01/12 11:21:59;;;;;;;77.00;33.30;;;;;;;-1.74;83.80;102307.81;52626;1273;1016255;-60
2022/01/12 11:24:34;;;;;;;70.60;27.20;;;;;;;-1.67;83.32;102306.63;52523;1273;1017074;-59
2022/01/12 11:27:07;;;;;;;69.30;29.20;;;;;;;-1.60;83.01;102298.90;52598;1273;1016449;-59
2022/01/12 11:29:39;;;;;;;65.50;29.30;;;;;;;-1.54;82.91;102302.77;52508;1273;1016617;-60
2022/01/12 11:32:13;;;;;;;73.80;32.40;;;;;;;-1.46;83.00;102307.00;52508;1273;1016368;-60
2022/01/12 11:34:44;;;;;;;59.80;26.00;;;;;;;-1.40;82.85;102301.63;52491;1273;1016146;-60
2022/01/12 11:37:17;;;;;;;66.10;27.90;;;;;;;-1.33;82.92;102300.33;52570;1273;1016454;-60
2022/01/12 11:39:49;;;;;;;59.20;25.20;;;;;;;-1.25;82.97;102297.34;52510;1273;1015839;-60
2022/01/12 11:42:21;;;;;;;59.10;23.50;;;;;;;-1.20;82.62;102297.26;52470;1273;1018860;-60
2022/01/12 11:44:53;;;;;;;54.60;21.80;;;;;;;-1.13;82.73;102288.83;52533;1273;1016520;-60
2022/01/12 11:47:28;;;;;;;52.10;20.60;;;;;;;-1.07;82.23;102283.81;52566;1273;1016691;-60
2022/01/12 11:49:59;;;;;;;51.90;22.20;;;;;;;-1.02;82.01;102275.83;52542;1273;1016375;-60
2022/01/12 11:52:37;;;;;;;65.60;25.80;;;;;;;-0.98;81.91;102270.54;52596;1273;1016617;-59
2022/01/12 11:55:13;;;;;;;55.70;24.50;;;;;;;-0.90;82.02;102263.98;52632;1273;1016060;-60
2022/01/12 11:57:50;;;;;;;54.80;21.80;;;;;;;-0.86;81.76;102264.18;52597;1273;1016869;-60
2022/01/12 12:00:27;;;;;;;49.60;22.20;;;;;;;-0.81;81.57;102261.47;52597;1273;1016058;-60
2022/01/12 12:03:00;;;;;;;65.20;26.70;;;;;;;-0.76;81.93;102260.56;52589;1273;1016243;-60
2022/01/12 12:05:34;;;;;;;45.70;18.20;;;;;;;-0.71;81.62;102258.28;52582;1272;1016150;-60
2022/01/12 12:08:06;;;;;;;47.20;19.10;;;;;;;-0.68;81.23;102252.48;52493;1273;1016128;-60
2022/01/12 12:10:39;;;;;;;52.20;19.60;;;;;;;-0.66;81.16;102253.31;52510;1273;1016000;-60
2022/01/12 12:13:11;;;;;;;49.40;19.60;;;;;;;-0.62;81.47;102250.98;52536;1273;1016730;-60
2022/01/12 12:15:43;;;;;;;50.00;18.10;;;;;;;-0.58;81.47;102247.80;52561;1273;1016417;-59
2022/01/12 12:18:15;;;;;;;39.70;16.70;;;;;;;-0.55;81.15;102246.86;52565;1273;1016596;-59
2022/01/12 12:20:46;;;;;;;41.80;17.00;;;;;;;-0.52;80.68;102240.19;52565;1273;1016386;-59
2022/01/12 12:23:28;;;;;;;46.60;18.10;;;;;;;-0.51;80.55;102240.20;52511;1273;1016471;-60
2022/01/12 12:26:07;;;;;;;41.30;17.50;;;;;;;-0.47;80.49;102240.21;52515;1273;1016826;-60
2022/01/12 12:28:38;;;;;;;45.00;18.70;;;;;;;-0.45;80.37;102234.00;52510;1273;1016696;-60
2022/01/12 12:31:09;;;;;;;43.60;16.50;;;;;;;-0.44;80.13;102231.91;52621;1273;1017019;-60
2022/01/12 12:33:41;;;;;;;43.70;16.10;;;;;;;-0.44;79.80;102232.59;52555;1273;1016620;-60
2022/01/12 12:36:14;;;;;;;47.40;20.10;;;;;;;-0.45;79.63;102232.35;52566;1273;1016472;-60
2022/01/12 12:38:45;;;;;;;44.50;19.30;;;;;;;-0.45;79.71;102229.05;52615;1273;1015724;-60
2022/01/12 12:41:16;;;;;;;46.10;17.40;;;;;;;-0.46;79.37;102230.60;52451;1273;1020071;-59
2022/01/12 12:43:48;;;;;;;49.30;18.60;;;;;;;-0.48;79.16;102228.52;52607;1273;1016646;-60
2022/01/12 12:46:19;;;;;;;44.70;17.80;;;;;;;-0.48;79.26;102236.11;52642;1273;1016536;-60
2022/01/12 12:48:51;;;;;;;50.30;20.90;;;;;;;-0.49;79.27;102236.34;52483;1273;1016167;-60
2022/01/12 12:51:22;;;;;;;52.30;18.80;;;;;;;-0.47;79.38;102240.84;52484;1273;1015976;-59
2022/01/12 12:53:58;;;;;;;50.50;21.00;;;;;;;-0.47;79.27;102247.27;52580;1273;1016415;-58